KHIE/HIE METAR and TAF weather

Enter ICAO airport designator
Station Type Date Time Source
KHIE METAR 2020/04/05 15:52 UTC NOAA

KHIE 051552Z AUTO 10SM SCT040 BKN110 12/02 A2997 RMK AO2 SLP157 T01220017


Station Type Date Time Source
KHIE Decoded METAR 2020/04/05 15:52 UTC NOAA

MT WASHINGTON REGIONAL AIRPORT , NH, United States (KHIE) 44-22N 71-33W 318M
Apr 05, 2020 - 11:52 AM EDT / 2020.04.05 1552 UTC
Visibility: 10 mile(s):0
Sky conditions: mostly cloudy
Temperature: 54.0 F (12.2 C)
Dew Point: 35.1 F (1.7 C)
Relative Humidity: 48%
Pressure (altimeter): 29.97 in. Hg (1014 hPa)
ob: KHIE 051552Z AUTO 10SM SCT040 BKN110 12/02 A2997 RMK AO2 SLP157 T01220017
cycle: 16

Station Type Date Time Source
KHIE TAF 2020/04/05 12:27 UTC NOAA

TAF KHIE 051124Z 0512/0612 24003KT P6SM BKN070
FM052200 21005KT 4SM -SHRA OVC015
FM060400 30005KT P6SM BKN015

Example: see airport list